sensor_id;sensor_type;location;lat;lon;timestamp;pressure;altitude;pressure_sealevel;temperature;humidity
83027;BME280;72842;56.038;12.706;2024-02-26T00:01:26;100440.88;;;10.59;68.76
83027;BME280;72842;56.038;12.706;2024-02-26T00:03:51;100443.69;;;10.57;68.72
83027;BME280;72842;56.038;12.706;2024-02-26T00:06:18;100442.94;;;10.55;67.89
83027;BME280;72842;56.038;12.706;2024-02-26T00:08:44;100425.63;;;10.38;68.48
83027;BME280;72842;56.038;12.706;2024-02-26T00:11:09;100448.56;;;10.52;68.38
83027;BME280;72842;56.038;12.706;2024-02-26T00:13:35;100459.41;;;10.50;68.16
83027;BME280;72842;56.038;12.706;2024-02-26T00:16:01;100444.44;;;10.48;68.33
83027;BME280;72842;56.038;12.706;2024-02-26T00:18:27;100450.75;;;10.47;68.22
83027;BME280;72842;56.038;12.706;2024-02-26T00:20:52;100447.59;;;10.42;68.02
83027;BME280;72842;56.038;12.706;2024-02-26T00:23:18;100456.25;;;10.45;68.43
83027;BME280;72842;56.038;12.706;2024-02-26T00:25:43;100454.56;;;10.44;68.29
83027;BME280;72842;56.038;12.706;2024-02-26T00:28:10;100457.31;;;10.43;67.92
83027;BME280;72842;56.038;12.706;2024-02-26T00:30:35;100456.47;;;10.42;68.60
83027;BME280;72842;56.038;12.706;2024-02-26T00:33:01;100454.78;;;10.41;67.95
83027;BME280;72842;56.038;12.706;2024-02-26T00:35:27;100457.59;;;10.40;68.12
83027;BME280;72842;56.038;12.706;2024-02-26T00:37:52;100454.91;;;10.40;68.49
83027;BME280;72842;56.038;12.706;2024-02-26T00:40:18;100458.56;;;10.39;68.30
83027;BME280;72842;56.038;12.706;2024-02-26T00:42:43;100456.03;;;10.37;68.10
83027;BME280;72842;56.038;12.706;2024-02-26T00:45:11;100459.56;;;10.38;68.44
83027;BME280;72842;56.038;12.706;2024-02-26T00:47:37;100461.47;;;10.36;68.05
83027;BME280;72842;56.038;12.706;2024-02-26T00:50:03;100460.63;;;10.35;67.67
83027;BME280;72842;56.038;12.706;2024-02-26T00:52:28;100462.59;;;10.33;68.29
83027;BME280;72842;56.038;12.706;2024-02-26T00:54:54;100460.91;;;10.32;68.79
83027;BME280;72842;56.038;12.706;2024-02-26T00:57:19;100466.25;;;10.32;68.35
83027;BME280;72842;56.038;12.706;2024-02-26T00:59:45;100469.91;;;10.31;68.01
83027;BME280;72842;56.038;12.706;2024-02-26T01:02:10;100467.09;;;10.33;67.83
83027;BME280;72842;56.038;12.706;2024-02-26T01:04:36;100461.97;;;10.30;68.04
83027;BME280;72842;56.038;12.706;2024-02-26T01:07:02;100466.47;;;10.29;68.30
83027;BME280;72842;56.038;12.706;2024-02-26T01:09:28;100467.47;;;10.28;67.96
83027;BME280;72842;56.038;12.706;2024-02-26T01:11:53;100468.44;;;10.27;68.20
83027;BME280;72842;56.038;12.706;2024-02-26T01:14:19;100466.75;;;10.26;68.10
83027;BME280;72842;56.038;12.706;2024-02-26T01:16:44;100460.53;;;10.25;67.85
83027;BME280;72842;56.038;12.706;2024-02-26T01:19:10;100463.22;;;10.25;67.98
83027;BME280;72842;56.038;12.706;2024-02-26T01:21:35;100461.41;;;10.26;68.51
83027;BME280;72842;56.038;12.706;2024-02-26T01:24:01;100460.66;;;10.24;67.91
83027;BME280;72842;56.038;12.706;2024-02-26T01:26:26;100459.78;;;10.23;67.70
83027;BME280;72842;56.038;12.706;2024-02-26T01:28:52;100445.31;;;10.15;68.23
83027;BME280;72842;56.038;12.706;2024-02-26T01:31:17;100459.91;;;10.22;67.89
83027;BME280;72842;56.038;12.706;2024-02-26T01:33:42;100459.06;;;10.21;67.43
83027;BME280;72842;56.038;12.706;2024-02-26T01:36:08;100459.91;;;10.22;68.30
83027;BME280;72842;56.038;12.706;2024-02-26T01:38:33;100456.38;;;10.21;68.06
83027;BME280;72842;56.038;12.706;2024-02-26T01:40:59;100454.69;;;10.20;67.91
83027;BME280;72842;56.038;12.706;2024-02-26T01:43:24;100455.66;;;10.19;68.08
83027;BME280;72842;56.038;12.706;2024-02-26T01:45:50;100456.50;;;10.20;67.37
83027;BME280;72842;56.038;12.706;2024-02-26T01:48:15;100453.00;;;10.19;67.79
83027;BME280;72842;56.038;12.706;2024-02-26T01:50:41;100461.00;;;10.19;67.84
83027;BME280;72842;56.038;12.706;2024-02-26T01:53:07;100454.81;;;10.19;67.66
83027;BME280;72842;56.038;12.706;2024-02-26T01:55:34;100460.16;;;10.19;68.06
83027;BME280;72842;56.038;12.706;2024-02-26T01:58:00;100462.94;;;10.17;67.92
83027;BME280;72842;56.038;12.706;2024-02-26T02:00:26;100460.25;;;10.17;67.81
83027;BME280;72842;56.038;12.706;2024-02-26T02:02:51;100453.22;;;10.16;67.20
83027;BME280;72842;56.038;12.706;2024-02-26T02:05:18;100461.25;;;10.16;67.74
83027;BME280;72842;56.038;12.706;2024-02-26T02:07:45;100428.81;;;9.98;67.76
83027;BME280;72842;56.038;12.706;2024-02-26T02:10:12;100453.34;;;10.15;67.79
83027;BME280;72842;56.038;12.706;2024-02-26T02:12:37;100457.00;;;10.14;67.31
83027;BME280;72842;56.038;12.706;2024-02-26T02:15:05;100443.63;;;10.03;67.04
83027;BME280;72842;56.038;12.706;2024-02-26T02:17:31;100462.34;;;10.14;67.53
83027;BME280;72842;56.038;12.706;2024-02-26T02:19:57;100462.47;;;10.12;67.97
83027;BME280;72842;56.038;12.706;2024-02-26T02:22:22;100459.81;;;10.12;67.17
83027;BME280;72842;56.038;12.706;2024-02-26T02:24:52;100463.44;;;10.11;67.65
83027;BME280;72842;56.038;12.706;2024-02-26T02:27:17;100463.44;;;10.11;67.09
83027;BME280;72842;56.038;12.706;2024-02-26T02:29:43;100462.56;;;10.11;67.24
83027;BME280;72842;56.038;12.706;2024-02-26T02:32:09;100472.44;;;10.10;66.94
83027;BME280;72842;56.038;12.706;2024-02-26T02:34:35;100476.94;;;10.10;66.90
83027;BME280;72842;56.038;12.706;2024-02-26T02:37:01;100472.56;;;10.09;66.93
83027;BME280;72842;56.038;12.706;2024-02-26T02:39:26;100471.72;;;10.08;66.80
83027;BME280;72842;56.038;12.706;2024-02-26T02:41:52;100475.38;;;10.07;66.74
83027;BME280;72842;56.038;12.706;2024-02-26T02:44:17;100477.19;;;10.07;67.16
83027;BME280;72842;56.038;12.706;2024-02-26T02:46:43;100447.56;;;9.87;67.36
83027;BME280;72842;56.038;12.706;2024-02-26T02:49:09;100483.50;;;10.06;67.08
83027;BME280;72842;56.038;12.706;2024-02-26T02:51:35;100484.47;;;10.05;67.08
83027;BME280;72842;56.038;12.706;2024-02-26T02:54:00;100488.97;;;10.04;67.23
83027;BME280;72842;56.038;12.706;2024-02-26T02:56:26;100460.91;;;9.87;66.78
83027;BME280;72842;56.038;12.706;2024-02-26T02:58:51;100489.94;;;10.03;66.55
83027;BME280;72842;56.038;12.706;2024-02-26T03:01:17;100488.25;;;10.02;67.09
83027;BME280;72842;56.038;12.706;2024-02-26T03:03:42;100492.03;;;9.99;67.05
83027;BME280;72842;56.038;12.706;2024-02-26T03:06:07;100464.06;;;9.81;66.54
83027;BME280;72842;56.038;12.706;2024-02-26T03:08:33;100500.97;;;9.98;66.45
83027;BME280;72842;56.038;12.706;2024-02-26T03:11:02;100504.63;;;9.97;66.80
83027;BME280;72842;56.038;12.706;2024-02-26T03:13:27;100502.09;;;9.96;66.42
83027;BME280;72842;56.038;12.706;2024-02-26T03:15:52;100504.75;;;9.96;66.56
83027;BME280;72842;56.038;12.706;2024-02-26T03:18:18;100501.13;;;9.97;66.90
83027;BME280;72842;56.038;12.706;2024-02-26T03:20:43;100504.88;;;9.94;66.66
83027;BME280;72842;56.038;12.706;2024-02-26T03:23:09;100499.63;;;9.93;66.32
83027;BME280;72842;56.038;12.706;2024-02-26T03:25:38;100498.78;;;9.92;66.55
83027;BME280;72842;56.038;12.706;2024-02-26T03:28:03;100511.31;;;9.92;66.62
83027;BME280;72842;56.038;12.706;2024-02-26T03:30:29;100505.97;;;9.92;66.04
83027;BME280;72842;56.038;12.706;2024-02-26T03:32:54;100491.28;;;9.75;65.96
83027;BME280;72842;56.038;12.706;2024-02-26T03:35:20;100483.47;;;9.72;66.61
83027;BME280;72842;56.038;12.706;2024-02-26T03:37:46;100517.75;;;9.89;66.49
83027;BME280;72842;56.038;12.706;2024-02-26T03:40:12;100523.09;;;9.89;66.41
83027;BME280;72842;56.038;12.706;2024-02-26T03:42:39;100515.31;;;9.86;66.33
83027;BME280;72842;56.038;12.706;2024-02-26T03:45:06;100520.44;;;9.89;66.87
83027;BME280;72842;56.038;12.706;2024-02-26T03:47:31;100517.88;;;9.88;66.46
83027;BME280;72842;56.038;12.706;2024-02-26T03:49:57;100525.91;;;9.88;65.90
83027;BME280;72842;56.038;12.706;2024-02-26T03:52:24;100529.56;;;9.87;65.98
83027;BME280;72842;56.038;12.706;2024-02-26T03:54:49;100530.50;;;9.86;66.52
83027;BME280;72842;56.038;12.706;2024-02-26T03:57:15;100525.63;;;9.80;66.56
83027;BME280;72842;56.038;12.706;2024-02-26T03:59:40;100523.81;;;9.80;66.28
83027;BME280;72842;56.038;12.706;2024-02-26T04:02:06;100538.66;;;9.84;66.53
83027;BME280;72842;56.038;12.706;2024-02-26T04:04:34;100543.13;;;9.84;65.97
83027;BME280;72842;56.038;12.706;2024-02-26T04:07:00;100534.28;;;9.83;66.31
83027;BME280;72842;56.038;12.706;2024-02-26T04:09:25;100533.44;;;9.83;66.31
83027;BME280;72842;56.038;12.706;2024-02-26T04:11:50;100536.09;;;9.83;65.77
83027;BME280;72842;56.038;12.706;2024-02-26T04:14:16;100539.75;;;9.82;65.87
83027;BME280;72842;56.038;12.706;2024-02-26T04:16:41;100541.66;;;9.80;65.86
83027;BME280;72842;56.038;12.706;2024-02-26T04:19:07;100547.00;;;9.80;65.36
83027;BME280;72842;56.038;12.706;2024-02-26T04:21:33;100551.50;;;9.79;66.04
83027;BME280;72842;56.038;12.706;2024-02-26T04:23:58;100554.19;;;9.79;66.00
83027;BME280;72842;56.038;12.706;2024-02-26T04:26:27;100551.63;;;9.78;65.76
83027;BME280;72842;56.038;12.706;2024-02-26T04:28:53;100543.75;;;9.76;65.59
83027;BME280;72842;56.038;12.706;2024-02-26T04:31:18;100556.25;;;9.76;66.05
83027;BME280;72842;56.038;12.706;2024-02-26T04:33:44;100553.69;;;9.74;65.38
83027;BME280;72842;56.038;12.706;2024-02-26T04:36:15;100553.09;;;9.70;65.43
83027;BME280;72842;56.038;12.706;2024-02-26T04:38:42;100561.94;;;9.71;65.41
83027;BME280;72842;56.038;12.706;2024-02-26T04:41:08;100563.66;;;9.72;65.32
83027;BME280;72842;56.038;12.706;2024-02-26T04:43:33;100569.97;;;9.71;65.81
83027;BME280;72842;56.038;12.706;2024-02-26T04:45:59;100566.44;;;9.70;65.69
83027;BME280;72842;56.038;12.706;2024-02-26T04:48:24;100570.09;;;9.69;65.21
83027;BME280;72842;56.038;12.706;2024-02-26T04:50:50;100564.75;;;9.69;65.51
83027;BME280;72842;56.038;12.706;2024-02-26T04:53:15;100572.00;;;9.67;65.36
83027;BME280;72842;56.038;12.706;2024-02-26T04:55:40;100573.81;;;9.67;65.86
83027;BME280;72842;56.038;12.706;2024-02-26T04:58:06;100569.72;;;9.63;65.57
83027;BME280;72842;56.038;12.706;2024-02-26T05:00:31;100564.59;;;9.60;65.35
83027;BME280;72842;56.038;12.706;2024-02-26T05:02:57;100577.59;;;9.64;64.81
83027;BME280;72842;56.038;12.706;2024-02-26T05:05:22;100567.38;;;9.58;65.00
83027;BME280;72842;56.038;12.706;2024-02-26T05:07:48;100574.22;;;9.62;65.29
83027;BME280;72842;56.038;12.706;2024-02-26T05:10:13;100573.34;;;9.62;65.67
83027;BME280;72842;56.038;12.706;2024-02-26T05:12:39;100580.50;;;9.61;64.88
83027;BME280;72842;56.038;12.706;2024-02-26T05:15:08;100581.47;;;9.60;64.67
83027;BME280;72842;56.038;12.706;2024-02-26T05:17:33;100548.03;;;9.43;65.31
83027;BME280;72842;56.038;12.706;2024-02-26T05:19:59;100581.72;;;9.57;65.34
83027;BME280;72842;56.038;12.706;2024-02-26T05:22:24;100576.00;;;9.51;64.81
83027;BME280;72842;56.038;12.706;2024-02-26T05:24:50;100569.75;;;9.39;65.20
83027;BME280;72842;56.038;12.706;2024-02-26T05:27:16;100591.66;;;9.55;65.20
83027;BME280;72842;56.038;12.706;2024-02-26T05:29:42;100604.16;;;9.55;65.02
83027;BME280;72842;56.038;12.706;2024-02-26T05:32:07;100603.31;;;9.54;64.89
83027;BME280;72842;56.038;12.706;2024-02-26T05:34:33;100612.28;;;9.53;64.97
83027;BME280;72842;56.038;12.706;2024-02-26T05:36:58;100605.25;;;9.52;64.87
83027;BME280;72842;56.038;12.706;2024-02-26T05:39:24;100609.75;;;9.52;64.58
83027;BME280;72842;56.038;12.706;2024-02-26T05:41:49;100612.41;;;9.52;64.74
83027;BME280;72842;56.038;12.706;2024-02-26T05:44:15;100605.84;;;9.44;64.79
83027;BME280;72842;56.038;12.706;2024-02-26T05:46:41;100613.38;;;9.51;64.58
83027;BME280;72842;56.038;12.706;2024-02-26T05:49:07;100615.22;;;9.50;64.44
83027;BME280;72842;56.038;12.706;2024-02-26T05:51:32;100621.41;;;9.51;64.88
83027;BME280;72842;56.038;12.706;2024-02-26T05:53:58;100624.91;;;9.51;64.96
83027;BME280;72842;56.038;12.706;2024-02-26T05:56:23;100632.09;;;9.51;64.77
83027;BME280;72842;56.038;12.706;2024-02-26T05:58:49;100632.09;;;9.51;64.81
83027;BME280;72842;56.038;12.706;2024-02-26T06:01:16;100624.91;;;9.51;64.64
83027;BME280;72842;56.038;12.706;2024-02-26T06:03:42;100630.25;;;9.51;64.95
83027;BME280;72842;56.038;12.706;2024-02-26T06:06:08;100634.75;;;9.51;64.76
83027;BME280;72842;56.038;12.706;2024-02-26T06:08:33;100628.78;;;9.47;64.64
83027;BME280;72842;56.038;12.706;2024-02-26T06:10:58;100624.91;;;9.51;64.57
83027;BME280;72842;56.038;12.706;2024-02-26T06:13:24;100643.63;;;9.51;64.52
83027;BME280;72842;56.038;12.706;2024-02-26T06:15:49;100670.31;;;9.51;64.73
83027;BME280;72842;56.038;12.706;2024-02-26T06:18:15;100681.13;;;9.50;64.77
83027;BME280;72842;56.038;12.706;2024-02-26T06:20:41;100682.19;;;9.47;64.97
83027;BME280;72842;56.038;12.706;2024-02-26T06:23:07;100687.66;;;9.45;64.65
83027;BME280;72842;56.038;12.706;2024-02-26T06:25:32;100693.13;;;9.44;65.26
83027;BME280;72842;56.038;12.706;2024-02-26T06:27:58;100700.38;;;9.42;64.56
83027;BME280;72842;56.038;12.706;2024-02-26T06:30:23;100701.22;;;9.42;64.71
83027;BME280;72842;56.038;12.706;2024-02-26T06:32:49;100700.38;;;9.42;64.53
83027;BME280;72842;56.038;12.706;2024-02-26T06:35:14;100711.06;;;9.42;64.85
83027;BME280;72842;56.038;12.706;2024-02-26T06:37:40;100716.41;;;9.42;65.18
83027;BME280;72842;56.038;12.706;2024-02-26T06:40:06;100724.31;;;9.43;64.82
83027;BME280;72842;56.038;12.706;2024-02-26T06:42:32;100716.31;;;9.43;64.41
83027;BME280;72842;56.038;12.706;2024-02-26T06:44:58;100713.66;;;9.43;64.87
83027;BME280;72842;56.038;12.706;2024-02-26T06:47:23;100724.22;;;9.45;64.88
83027;BME280;72842;56.038;12.706;2024-02-26T06:49:49;100730.53;;;9.44;64.59
83027;BME280;72842;56.038;12.706;2024-02-26T06:52:14;100728.81;;;9.43;64.80
83027;BME280;72842;56.038;12.706;2024-02-26T06:54:39;100726.88;;;9.45;64.84
83027;BME280;72842;56.038;12.706;2024-02-26T06:57:05;100735.75;;;9.45;64.77
83027;BME280;72842;56.038;12.706;2024-02-26T06:59:30;100739.25;;;9.46;64.76
83027;BME280;72842;56.038;12.706;2024-02-26T07:01:56;100749.09;;;9.45;65.02
83027;BME280;72842;56.038;12.706;2024-02-26T07:04:21;100741.09;;;9.45;64.63
83027;BME280;72842;56.038;12.706;2024-02-26T07:06:47;100742.06;;;9.44;64.73
83027;BME280;72842;56.038;12.706;2024-02-26T07:09:12;100752.75;;;9.44;64.52
83027;BME280;72842;56.038;12.706;2024-02-26T07:11:38;100730.44;;;9.33;64.80
83027;BME280;72842;56.038;12.706;2024-02-26T07:14:08;100752.41;;;9.49;64.90
83027;BME280;72842;56.038;12.706;2024-02-26T07:16:33;100761.28;;;9.50;64.72
83027;BME280;72842;56.038;12.706;2024-02-26T07:18:59;100766.63;;;9.50;64.85
83027;BME280;72842;56.038;12.706;2024-02-26T07:21:24;100772.91;;;9.49;64.90
83027;BME280;72842;56.038;12.706;2024-02-26T07:23:49;100779.00;;;9.51;65.15
83027;BME280;72842;56.038;12.706;2024-02-26T07:26:15;100774.63;;;9.50;64.84
83027;BME280;72842;56.038;12.706;2024-02-26T07:28:42;100781.22;;;9.57;64.78
83027;BME280;72842;56.038;12.706;2024-02-26T07:31:08;100782.47;;;9.64;64.33
83027;BME280;72842;56.038;12.706;2024-02-26T07:33:33;100783.63;;;9.72;64.00
83027;BME280;72842;56.038;12.706;2024-02-26T07:35:58;100793.41;;;9.85;64.00
83027;BME280;72842;56.038;12.706;2024-02-26T07:38:24;100795.28;;;9.95;63.93
83027;BME280;72842;56.038;12.706;2024-02-26T07:40:49;100802.16;;;10.11;64.28
83027;BME280;72842;56.038;12.706;2024-02-26T07:43:15;100802.97;;;10.24;63.58
83027;BME280;72842;56.038;12.706;2024-02-26T07:45:40;100801.81;;;10.39;63.90
83027;BME280;72842;56.038;12.706;2024-02-26T07:48:06;100802.34;;;10.56;62.85
83027;BME280;72842;56.038;12.706;2024-02-26T07:50:32;100802.88;;;10.72;63.15
83027;BME280;72842;56.038;12.706;2024-02-26T07:52:57;100807.91;;;10.88;63.19
83027;BME280;72842;56.038;12.706;2024-02-26T07:55:23;100814.72;;;11.03;63.31
83027;BME280;72842;56.038;12.706;2024-02-26T07:57:49;100824.47;;;11.15;62.69
83027;BME280;72842;56.038;12.706;2024-02-26T08:00:14;100828.59;;;11.30;62.77
83027;BME280;72842;56.038;12.706;2024-02-26T08:02:42;100825.09;;;11.41;62.47
83027;BME280;72842;56.038;12.706;2024-02-26T08:05:08;100824.22;;;11.52;62.94
83027;BME280;72842;56.038;12.706;2024-02-26T08:07:34;100824.22;;;11.63;62.96
83027;BME280;72842;56.038;12.706;2024-02-26T08:09:59;100825.88;;;11.75;62.32
83027;BME280;72842;56.038;12.706;2024-02-26T08:12:25;100822.22;;;11.87;61.72
83027;BME280;72842;56.038;12.706;2024-02-26T08:14:51;100820.28;;;12.01;62.25
83027;BME280;72842;56.038;12.706;2024-02-26T08:17:16;100828.16;;;12.13;62.31
83027;BME280;72842;56.038;12.706;2024-02-26T08:19:42;100828.09;;;12.25;61.93
83027;BME280;72842;56.038;12.706;2024-02-26T08:22:07;100831.44;;;12.38;61.92
83027;BME280;72842;56.038;12.706;2024-02-26T08:24:33;100839.31;;;12.51;61.64
83027;BME280;72842;56.038;12.706;2024-02-26T08:26:58;100828.94;;;12.57;61.94
83027;BME280;72842;56.038;12.706;2024-02-26T08:29:24;100827.63;;;12.73;62.04
83027;BME280;72842;56.038;12.706;2024-02-26T08:31:49;100834.78;;;12.83;61.71
83027;BME280;72842;56.038;12.706;2024-02-26T08:34:15;100836.66;;;12.92;61.28
83027;BME280;72842;56.038;12.706;2024-02-26T08:36:40;100839.53;;;13.01;61.39
83027;BME280;72842;56.038;12.706;2024-02-26T08:39:08;100830.94;;;13.07;60.90
83027;BME280;72842;56.038;12.706;2024-02-26T08:41:34;100850.16;;;13.23;61.03
83027;BME280;72842;56.038;12.706;2024-02-26T08:43:59;100850.22;;;13.33;60.88
83027;BME280;72842;56.038;12.706;2024-02-26T08:46:25;100851.25;;;13.41;61.00
83027;BME280;72842;56.038;12.706;2024-02-26T08:48:50;100847.47;;;13.54;60.74
83027;BME280;72842;56.038;12.706;2024-02-26T08:51:16;100855.69;;;13.62;60.60
83027;BME280;72842;56.038;12.706;2024-02-26T08:53:42;100858.44;;;13.71;60.33
83027;BME280;72842;56.038;12.706;2024-02-26T08:56:07;100845.53;;;13.65;60.48
83027;BME280;72842;56.038;12.706;2024-02-26T08:58:32;100853.16;;;13.70;60.47
83027;BME280;72842;56.038;12.706;2024-02-26T09:00:58;100858.75;;;13.78;60.32
83027;BME280;72842;56.038;12.706;2024-02-26T09:03:23;100864.56;;;13.83;60.19
83027;BME280;72842;56.038;12.706;2024-02-26T09:05:49;100873.78;;;13.90;60.14
83027;BME280;72842;56.038;12.706;2024-02-26T09:08:14;100870.41;;;13.98;59.96
83027;BME280;72842;56.038;12.706;2024-02-26T09:10:40;100872.38;;;14.06;59.78
83027;BME280;72842;56.038;12.706;2024-02-26T09:13:06;100882.44;;;14.13;60.03
83027;BME280;72842;56.038;12.706;2024-02-26T09:15:31;100874.41;;;14.23;59.82
83027;BME280;72842;56.038;12.706;2024-02-26T09:17:57;100881.63;;;14.32;59.70
83027;BME280;72842;56.038;12.706;2024-02-26T09:20:23;100883.50;;;14.41;59.37
83027;BME280;72842;56.038;12.706;2024-02-26T09:22:49;100879.50;;;14.45;59.56
83027;BME280;72842;56.038;12.706;2024-02-26T09:25:14;100892.59;;;14.50;59.57
83027;BME280;72842;56.038;12.706;2024-02-26T09:27:44;100887.88;;;14.42;59.29
83027;BME280;72842;56.038;12.706;2024-02-26T09:30:13;100893.53;;;14.39;59.40
83027;BME280;72842;56.038;12.706;2024-02-26T09:32:39;100893.41;;;14.31;59.39
83027;BME280;72842;56.038;12.706;2024-02-26T09:35:08;100901.88;;;14.26;59.82
83027;BME280;72842;56.038;12.706;2024-02-26T09:37:34;100893.09;;;14.24;59.32
83027;BME280;72842;56.038;12.706;2024-02-26T09:40:00;100899.34;;;14.25;59.53
83027;BME280;72842;56.038;12.706;2024-02-26T09:42:26;100906.00;;;14.30;59.01
83027;BME280;72842;56.038;12.706;2024-02-26T09:44:54;100905.59;;;14.35;58.90
83027;BME280;72842;56.038;12.706;2024-02-26T09:47:23;100910.91;;;14.46;58.99
83027;BME280;72842;56.038;12.706;2024-02-26T09:49:51;100904.38;;;14.49;59.18
83027;BME280;72842;56.038;12.706;2024-02-26T09:52:19;100916.13;;;14.48;58.82
83027;BME280;72842;56.038;12.706;2024-02-26T09:54:48;100911.13;;;14.43;58.84
83027;BME280;72842;56.038;12.706;2024-02-26T09:57:15;100905.78;;;14.53;59.09
83027;BME280;72842;56.038;12.706;2024-02-26T09:59:42;100916.72;;;14.61;58.56
83027;BME280;72842;56.038;12.706;2024-02-26T10:02:12;100918.81;;;14.57;58.69
83027;BME280;72842;56.038;12.706;2024-02-26T10:04:39;100917.41;;;14.53;58.78
83027;BME280;72842;56.038;12.706;2024-02-26T10:07:10;100916.13;;;14.48;58.89
83027;BME280;72842;56.038;12.706;2024-02-26T10:09:36;100911.03;;;14.54;58.60
83027;BME280;72842;56.038;12.706;2024-02-26T10:12:02;100918.81;;;14.57;58.43
83027;BME280;72842;56.038;12.706;2024-02-26T10:14:28;100923.22;;;14.68;58.59
83027;BME280;72842;56.038;12.706;2024-02-26T10:16:53;100919.13;;;14.74;58.55
83027;BME280;72842;56.038;12.706;2024-02-26T10:19:29;100924.50;;;14.74;58.50
83027;BME280;72842;56.038;12.706;2024-02-26T10:21:58;100933.56;;;14.82;58.06
83027;BME280;72842;56.038;12.706;2024-02-26T10:24:25;100930.31;;;14.89;58.11
83027;BME280;72842;56.038;12.706;2024-02-26T10:26:52;100935.97;;;14.95;57.89
83027;BME280;72842;56.038;12.706;2024-02-26T10:29:18;100944.38;;;14.92;58.07
83027;BME280;72842;56.038;12.706;2024-02-26T10:31:44;100950.59;;;14.93;58.38
83027;BME280;72842;56.038;12.706;2024-02-26T10:34:10;100948.50;;;14.96;57.86
83027;BME280;72842;56.038;12.706;2024-02-26T10:36:36;100946.63;;;14.87;58.07
83027;BME280;72842;56.038;12.706;2024-02-26T10:39:05;100948.06;;;14.72;58.61
83027;BME280;72842;56.038;12.706;2024-02-26T10:41:33;100949.19;;;14.60;58.97
83027;BME280;72842;56.038;12.706;2024-02-26T10:43:58;100951.38;;;14.45;58.53
83027;BME280;72842;56.038;12.706;2024-02-26T10:46:25;100951.63;;;14.32;58.87
83027;BME280;72842;56.038;12.706;2024-02-26T10:48:52;100953.56;;;14.20;58.86
83027;BME280;72842;56.038;12.706;2024-02-26T10:51:29;100961.91;;;14.08;59.20
83027;BME280;72842;56.038;12.706;2024-02-26T10:53:56;100959.34;;;13.96;59.29
83027;BME280;72842;56.038;12.706;2024-02-26T10:56:33;100960.41;;;13.84;59.26
83027;BME280;72842;56.038;12.706;2024-02-26T10:58:59;100952.28;;;13.74;59.65
83027;BME280;72842;56.038;12.706;2024-02-26T11:01:26;100959.34;;;13.66;59.70
83027;BME280;72842;56.038;12.706;2024-02-26T11:03:55;100959.28;;;13.56;59.61
83027;BME280;72842;56.038;12.706;2024-02-26T11:06:21;100967.16;;;13.48;59.55
83027;BME280;72842;56.038;12.706;2024-02-26T11:08:50;100966.13;;;13.39;59.84
83027;BME280;72842;56.038;12.706;2024-02-26T11:11:17;100956.44;;;13.27;59.90
83027;BME280;72842;56.038;12.706;2024-02-26T11:13:46;100965.66;;;13.34;60.81
83027;BME280;72842;56.038;12.706;2024-02-26T11:16:16;100961.72;;;13.38;60.36
83027;BME280;72842;56.038;12.706;2024-02-26T11:18:43;100965.66;;;13.34;60.30
83027;BME280;72842;56.038;12.706;2024-02-26T11:21:15;100960.81;;;13.28;60.50
83027;BME280;72842;56.038;12.706;2024-02-26T11:23:41;100964.03;;;13.22;60.59
83027;BME280;72842;56.038;12.706;2024-02-26T11:26:08;100964.50;;;13.16;60.32
83027;BME280;72842;56.038;12.706;2024-02-26T11:28:35;100968.56;;;13.10;60.39
83027;BME280;72842;56.038;12.706;2024-02-26T11:31:02;100971.63;;;13.06;60.45
83027;BME280;72842;56.038;12.706;2024-02-26T11:33:30;100971.91;;;13.03;60.78
83027;BME280;72842;56.038;12.706;2024-02-26T11:35:55;100975.81;;;12.99;60.57
83027;BME280;72842;56.038;12.706;2024-02-26T11:38:23;100975.25;;;12.95;60.95
83027;BME280;72842;56.038;12.706;2024-02-26T11:40:50;100986.22;;;12.92;60.60
83027;BME280;72842;56.038;12.706;2024-02-26T11:43:16;100991.97;;;12.87;60.74
83027;BME280;72842;56.038;12.706;2024-02-26T11:48:22;100976.50;;;12.80;60.51
83027;BME280;72842;56.038;12.706;2024-02-26T11:50:55;100983.00;;;12.77;61.02
83027;BME280;72842;56.038;12.706;2024-02-26T11:53:31;100986.06;;;12.73;60.82
83027;BME280;72842;56.038;12.706;2024-02-26T11:58:59;100995.47;;;12.67;60.61
83027;BME280;72842;56.038;12.706;2024-02-26T12:01:44;101003.81;;;12.64;60.68
83027;BME280;72842;56.038;12.706;2024-02-26T12:04:15;100998.44;;;12.64;61.04
83027;BME280;72842;56.038;12.706;2024-02-26T12:06:43;101003.06;;;12.62;61.04
83027;BME280;72842;56.038;12.706;2024-02-26T12:09:09;100993.44;;;12.59;60.84
83027;BME280;72842;56.038;12.706;2024-02-26T12:11:38;101003.19;;;12.60;61.01
83027;BME280;72842;56.038;12.706;2024-02-26T12:14:05;101008.41;;;12.62;61.15
83027;BME280;72842;56.038;12.706;2024-02-26T12:16:39;101003.19;;;12.60;61.16
83027;BME280;72842;56.038;12.706;2024-02-26T12:19:09;101012.81;;;12.63;61.31
83027;BME280;72842;56.038;12.706;2024-02-26T12:21:36;101008.31;;;12.63;60.68
83027;BME280;72842;56.038;12.706;2024-02-26T12:24:15;101006.59;;;12.62;61.30
83027;BME280;72842;56.038;12.706;2024-02-26T12:26:43;101007.19;;;12.66;61.01
83027;BME280;72842;56.038;12.706;2024-02-26T12:29:09;101005.09;;;12.69;60.87
83027;BME280;72842;56.038;12.706;2024-02-26T12:31:36;101001.47;;;12.71;60.81
83027;BME280;72842;56.038;12.706;2024-02-26T12:34:03;101005.84;;;12.72;61.23
83027;BME280;72842;56.038;12.706;2024-02-26T12:36:29;101012.19;;;12.71;61.11
83027;BME280;72842;56.038;12.706;2024-02-26T12:38:55;101010.38;;;12.71;60.98
83027;BME280;72842;56.038;12.706;2024-02-26T12:41:21;101022.09;;;12.70;60.97
83027;BME280;72842;56.038;12.706;2024-02-26T12:43:47;101017.56;;;12.71;61.24